Time;durP1;ratioP1;P1;durP2;ratioP2;P2;SDS_P1;SDS_P2;PMS_P1;PMS_P2;Temp;Humidity;BMP_temperature;BMP_pressure;BME280_temperature;BME280_humidity;BME280_pressure;Samples;Min_cycle;Max_cycle;Signal;HPM_P1;HPM_P2
2022/04/01 00:01:40;;;;;;;5.20;3.25;;;;;;;-0.59;100.00;100851.72;5052082;28;20039;-71
2022/04/01 00:04:06;;;;;;;6.63;2.90;;;;;;;-0.57;100.00;100855.19;5052232;28;20029;-71
2022/04/01 00:06:31;;;;;;;6.53;3.22;;;;;;;-0.57;100.00;100849.97;5052163;28;20505;-71
2022/04/01 00:08:57;;;;;;;7.88;2.97;;;;;;;-0.59;100.00;100855.16;5052122;28;20441;-71
2022/04/01 00:11:22;;;;;;;5.15;2.88;;;;;;;-0.60;100.00;100844.78;5052510;28;20119;-72
2022/04/01 00:13:48;;;;;;;3.83;2.63;;;;;;;-0.59;100.00;100851.72;5053567;28;20028;-71
2022/04/01 00:16:15;;;;;;;8.68;3.20;;;;;;;-0.58;100.00;100854.34;5052942;28;20040;-71
2022/04/01 00:18:40;;;;;;;5.95;2.90;;;;;;;-0.60;100.00;100856.03;5052856;28;20071;-71
2022/04/01 00:21:06;;;;;;;6.32;3.08;;;;;;;-0.58;100.00;100864.75;5051554;28;20036;-71
2022/04/01 00:23:31;;;;;;;7.18;2.88;;;;;;;-0.55;100.00;100864.72;5052231;28;20111;-71
2022/04/01 00:25:57;;;;;;;5.13;2.55;;;;;;;-0.56;100.00;100863.00;5051641;28;20064;-71
2022/04/01 00:28:22;;;;;;;5.30;2.83;;;;;;;-0.53;100.00;100856.94;5053143;28;20500;-71
2022/04/01 00:30:48;;;;;;;4.95;2.58;;;;;;;-0.51;100.00;100857.78;5046176;28;20141;-71
2022/04/01 00:33:16;;;;;;;3.95;2.60;;;;;;;-0.50;100.00;100851.72;5017121;28;20040;-71
2022/04/01 00:35:42;;;;;;;5.70;2.50;;;;;;;-0.47;100.00;100851.75;5051941;28;20375;-71
2022/04/01 00:38:08;;;;;;;6.25;2.70;;;;;;;-0.46;100.00;100857.78;5050421;28;20292;-72
2022/04/01 00:40:35;;;;;;;4.90;2.70;;;;;;;-0.44;100.00;100851.72;5032510;28;20509;-71
2022/04/01 00:43:01;;;;;;;6.50;2.65;;;;;;;-0.44;100.00;100850.88;5030644;28;20234;-71
2022/04/01 00:45:26;;;;;;;5.38;2.80;;;;;;;-0.44;100.00;100856.06;5031218;28;20506;-72
2022/04/01 00:47:54;;;;;;;4.80;2.58;;;;;;;-0.43;100.00;100856.06;5032458;28;20098;-72
2022/04/01 00:50:19;;;;;;;4.40;2.60;;;;;;;-0.40;100.00;100857.78;5029599;28;20473;-72
2022/04/01 00:52:45;;;;;;;3.83;2.50;;;;;;;-0.39;100.00;100862.13;5030653;28;20032;-72
2022/04/01 00:55:11;;;;;;;8.00;2.70;;;;;;;-0.38;100.00;100865.59;5030862;28;20037;-73
2022/04/01 00:57:38;;;;;;;4.72;2.80;;;;;;;-0.39;100.00;100869.09;5031346;28;20036;-71
2022/04/01 01:00:07;;;;;;;5.50;3.03;;;;;;;-0.39;100.00;100866.47;5030828;28;20029;-71
2022/04/01 01:02:34;;;;;;;6.90;2.90;;;;;;;-0.35;100.00;100873.41;5029602;28;20063;-71
2022/04/01 01:05:00;;;;;;;7.57;2.63;;;;;;;-0.33;100.00;100875.13;5030379;28;20029;-71
2022/04/01 01:07:26;;;;;;;5.95;2.75;;;;;;;-0.32;100.00;100879.47;5025653;28;20461;-71
2022/04/01 01:09:52;;;;;;;7.85;2.67;;;;;;;-0.30;100.00;100874.28;5029531;28;20075;-71
2022/04/01 01:12:17;;;;;;;6.75;2.40;;;;;;;-0.29;100.00;100881.22;5030246;28;20029;-71
2022/04/01 01:14:44;;;;;;;5.38;2.67;;;;;;;-0.27;100.00;100874.28;5028837;28;20098;-71
2022/04/01 01:17:12;;;;;;;4.90;2.53;;;;;;;-0.27;100.00;100884.69;5030767;28;20442;-72
2022/04/01 01:19:38;;;;;;;4.47;2.53;;;;;;;-0.26;100.00;100878.63;5031174;28;20511;-72
2022/04/01 01:22:04;;;;;;;5.68;2.47;;;;;;;-0.25;100.00;100876.88;5029666;28;20559;-72
2022/04/01 01:24:31;;;;;;;4.78;2.63;;;;;;;-0.25;100.00;100875.16;5030310;28;20049;-72
2022/04/01 01:26:57;;;;;;;5.40;2.50;;;;;;;-0.22;100.00;100871.69;5029959;28;20033;-72
2022/04/01 01:29:26;;;;;;;5.82;2.42;;;;;;;-0.20;100.00;100876.03;5031976;28;20605;-72
2022/04/01 01:31:54;;;;;;;3.60;2.40;;;;;;;-0.20;100.00;100868.22;5029460;28;20127;-72
2022/04/01 01:34:21;;;;;;;6.00;2.30;;;;;;;-0.21;100.00;100871.66;5025558;28;20029;-72
2022/04/01 01:36:46;;;;;;;8.88;2.90;;;;;;;-0.19;100.00;100864.75;5030856;28;20036;-72
2022/04/01 01:39:12;;;;;;;5.80;2.33;;;;;;;-0.17;100.00;100864.72;5028728;28;20105;-72
2022/04/01 01:41:37;;;;;;;7.45;2.50;;;;;;;-0.16;100.00;100880.34;5046482;28;20079;-72
2022/04/01 01:44:04;;;;;;;7.85;2.55;;;;;;;-0.16;100.00;100876.88;5051047;28;20063;-72
2022/04/01 01:46:30;;;;;;;4.57;2.15;;;;;;;-0.15;100.00;100874.25;5051460;28;20041;-72
2022/04/01 01:48:55;;;;;;;3.80;2.40;;;;;;;-0.16;100.00;100874.28;5049500;28;20579;-72
2022/04/01 01:56:50;;;;;;;5.50;2.58;;;;;;;-0.13;100.00;100866.47;5048735;28;20032;-72
2022/04/01 01:59:16;;;;;;;4.15;2.35;;;;;;;-0.12;100.00;100862.13;5050760;28;20536;-71
2022/04/01 02:01:42;;;;;;;4.38;2.28;;;;;;;-0.10;100.00;100870.81;5050214;28;20029;-72
2022/04/01 02:04:09;;;;;;;5.95;2.08;;;;;;;-0.11;100.00;100859.50;5031499;28;20059;-72
2022/04/01 02:06:34;;;;;;;6.25;2.80;;;;;;;-0.11;100.00;100869.94;5052651;28;21139;-72
2022/04/01 02:09:00;;;;;;;9.15;2.60;;;;;;;-0.08;100.00;100866.44;5053891;28;20438;-72
2022/04/01 02:11:26;;;;;;;5.72;2.42;;;;;;;-0.08;100.00;100856.03;5054419;28;20040;-71
2022/04/01 02:13:52;;;;;;;5.28;2.30;;;;;;;-0.06;100.00;100872.56;5053742;28;20045;-71
2022/04/01 02:16:18;;;;;;;5.50;2.50;;;;;;;-0.05;100.00;100864.72;5053396;28;20044;-73
2022/04/01 02:18:44;;;;;;;7.82;2.95;;;;;;;-0.01;100.00;100876.00;5036766;28;20158;-72
2022/04/01 02:21:15;;;;;;;5.47;2.50;;;;;;;-0.01;100.00;100871.66;5022135;28;20558;-72
2022/04/01 02:23:43;;;;;;;5.30;2.17;;;;;;;-0.01;100.00;100870.78;5035561;28;20028;-72
2022/04/01 02:26:09;;;;;;;4.57;2.75;;;;;;;0.01;100.00;100879.47;5035366;28;20566;-73
2022/04/01 02:28:35;;;;;;;6.25;2.50;;;;;;;0.01;100.00;100879.47;5053894;28;20065;-73
2022/04/01 02:31:01;;;;;;;7.13;2.50;;;;;;;0.05;100.00;100877.75;5036420;28;20037;-72
2022/04/01 02:33:27;;;;;;;6.60;2.33;;;;;;;0.05;100.00;100888.16;5034942;28;20032;-72
2022/04/01 02:35:57;;;;;;;3.90;2.58;;;;;;;0.05;100.00;100889.00;5037668;28;20139;-73
2022/04/01 02:38:27;;;;;;;6.22;2.47;;;;;;;0.06;100.00;100888.13;5052554;28;20641;-72
2022/04/01 02:40:57;;;;;;;6.75;2.78;;;;;;;0.09;100.00;100884.66;5033904;28;20057;-72
2022/04/01 02:43:23;;;;;;;6.63;2.20;;;;;;;0.11;100.00;100895.97;5036196;28;20120;-72
2022/04/01 02:45:49;;;;;;;4.57;2.78;;;;;;;0.10;100.00;100897.69;5035412;28;20060;-74
2022/04/01 02:48:17;;;;;;;7.25;2.50;;;;;;;0.13;100.00;100894.22;5053279;28;20028;-72
2022/04/01 02:50:48;;;;;;;5.97;2.50;;;;;;;0.14;100.00;100895.94;5036333;28;20132;-72
2022/04/01 02:53:15;;;;;;;5.05;2.28;;;;;;;0.15;100.00;100905.50;5036462;28;20476;-73
2022/04/01 02:55:41;;;;;;;6.20;2.40;;;;;;;0.15;100.00;100897.69;5022863;28;20064;-73
2022/04/01 02:58:07;;;;;;;8.52;2.50;;;;;;;0.15;100.00;100908.09;5032835;28;20025;-73
2022/04/01 03:00:37;;;;;;;8.98;2.30;;;;;;;0.13;100.00;100904.63;5049509;28;20025;-72
2022/04/01 03:03:06;;;;;;;4.43;2.35;;;;;;;0.13;100.00;100913.28;5018500;28;20045;-73
2022/04/01 03:05:39;;;;;;;4.80;2.25;;;;;;;0.15;100.00;100917.66;5052363;28;20051;-73
2022/04/01 03:08:05;;;;;;;;;;;;;;;0.18;100.00;100918.53;5053591;28;20457;-73
2022/04/01 03:10:32;;;;;;;6.32;2.22;;;;;;;0.19;100.00;100912.44;5052481;28;19932;-73
2022/04/01 03:12:57;;;;;;;5.68;2.35;;;;;;;0.20;100.00;100921.97;5052960;28;20037;-72
2022/04/01 03:15:24;;;;;;;4.55;2.38;;;;;;;0.20;100.00;100928.91;5033321;28;20032;-72
2022/04/01 03:17:50;;;;;;;3.80;2.25;;;;;;;0.21;100.00;100933.28;5033211;28;20036;-72
2022/04/01 03:20:15;;;;;;;9.52;2.45;;;;;;;0.20;100.00;100931.50;5050341;28;20036;-73
2022/04/01 03:22:42;;;;;;;6.55;2.55;;;;;;;0.21;100.00;100926.31;5035107;28;20132;-72
2022/04/01 03:25:09;;;;;;;8.52;2.58;;;;;;;0.24;100.00;100939.34;5052739;28;20060;-70
2022/04/01 03:27:35;;;;;;;6.07;2.20;;;;;;;0.23;100.00;100936.75;5052765;28;20033;-71
2022/04/01 03:30:01;;;;;;;6.10;2.40;;;;;;;0.24;100.00;100944.56;5053617;28;20040;-70
2022/04/01 03:32:26;;;;;;;7.10;2.42;;;;;;;0.25;100.00;100945.41;5015172;28;20036;-71
2022/04/01 03:34:52;;;;;;;6.70;2.33;;;;;;;0.23;100.00;100940.19;5053234;28;20136;-71
2022/04/01 03:37:17;;;;;;;4.50;2.08;;;;;;;0.25;100.00;100945.41;5052068;28;20399;-71
2022/04/01 03:39:43;;;;;;;9.27;2.35;;;;;;;0.23;100.00;100949.75;5034916;28;20113;-71
2022/04/01 03:42:09;;;;;;;7.55;2.38;;;;;;;0.22;100.00;100948.88;5051552;28;20475;-71
2022/04/01 03:44:41;;;;;;;7.35;2.22;;;;;;;0.23;100.00;100947.16;5051679;28;20048;-71
2022/04/01 03:47:10;;;;;;;8.80;2.25;;;;;;;0.24;100.00;100959.31;5022020;28;20039;-70
2022/04/01 03:49:42;;;;;;;7.00;1.90;;;;;;;0.23;100.00;100952.38;5034799;28;20118;-71
2022/04/01 03:52:08;;;;;;;5.50;2.72;;;;;;;0.27;100.00;100956.69;5034290;28;20191;-71
2022/04/01 03:54:34;;;;;;;6.70;1.92;;;;;;;0.26;100.00;100961.03;5051747;28;20033;-71
2022/04/01 03:57:01;;;;;;;7.85;2.17;;;;;;;0.28;99.57;100954.97;5050866;28;20024;-71
2022/04/01 03:59:40;;;;;;;3.90;1.98;;;;;;;0.29;100.00;100965.38;5034185;28;20110;-71
2022/04/01 04:02:12;;;;;;;6.93;2.40;;;;;;;0.28;99.87;100966.25;5051378;28;20035;-71
2022/04/01 04:04:38;;;;;;;5.05;1.83;;;;;;;0.29;99.15;100980.13;5034902;28;20045;-72
2022/04/01 04:07:08;;;;;;;4.75;2.20;;;;;;;0.27;99.76;100969.72;5051215;28;20526;-72
2022/04/01 04:09:38;;;;;;;6.63;1.70;;;;;;;0.26;99.75;100974.06;5035133;28;20028;-72
2022/04/01 04:12:05;;;;;;;5.90;2.42;;;;;;;0.26;99.81;100970.56;5031616;28;20070;-71
2022/04/01 04:14:32;;;;;;;7.47;2.20;;;;;;;0.25;100.00;100977.53;5030880;28;20063;-72
2022/04/01 04:17:05;;;;;;;8.45;2.30;;;;;;;0.26;99.61;100971.47;5017330;28;20128;-71
2022/04/01 04:19:45;;;;;;;5.35;2.10;;;;;;;0.27;99.71;100974.91;5033903;28;20596;-72
2022/04/01 04:22:16;;;;;;;4.80;2.17;;;;;;;0.27;100.00;100980.13;5050449;28;20054;-72
2022/04/01 04:24:53;;;;;;;4.68;2.28;;;;;;;0.29;99.53;100982.72;5033346;28;20120;-71
2022/04/01 04:27:25;;;;;;;6.63;2.10;;;;;;;0.31;99.27;100986.19;5033863;28;20185;-71
2022/04/01 04:29:52;;;;;;;5.03;2.22;;;;;;;0.32;99.28;100986.22;5051419;28;20097;-71
2022/04/01 04:32:34;;;;;;;8.15;2.08;;;;;;;0.35;99.21;100988.81;5050275;28;20110;-71
2022/04/01 04:35:04;;;;;;;5.15;2.20;;;;;;;0.37;98.08;100989.69;5034701;28;20722;-71
2022/04/01 04:37:32;;;;;;;7.88;2.42;;;;;;;0.41;98.58;100993.16;5020951;28;20029;-71
2022/04/01 04:39:59;;;;;;;4.80;2.10;;;;;;;0.43;98.50;100996.63;5015230;28;20040;-71
2022/04/01 04:42:27;;;;;;;3.42;2.00;;;;;;;0.45;98.17;101007.03;5031838;28;20701;-71
2022/04/01 04:44:53;;;;;;;6.95;2.03;;;;;;;0.46;97.74;101008.78;5051551;28;20031;-71
2022/04/01 04:47:26;;;;;;;11.63;2.22;;;;;;;0.46;98.27;101007.06;5051167;28;20029;-71
2022/04/01 04:49:53;;;;;;;6.33;2.20;;;;;;;0.48;98.22;101014.88;5035152;28;20529;-71
2022/04/01 04:52:20;;;;;;;5.70;2.22;;;;;;;0.47;98.24;101013.13;5037536;28;20039;-71
2022/04/01 04:54:46;;;;;;;6.50;2.22;;;;;;;0.46;96.86;101001.84;5032156;28;20399;-71
2022/04/01 04:57:11;;;;;;;4.40;2.10;;;;;;;0.46;98.37;101012.25;5031521;28;20035;-71
2022/04/01 04:59:41;;;;;;;5.03;2.03;;;;;;;0.47;97.86;101018.31;5051266;28;20036;-71
2022/04/01 05:02:10;;;;;;;5.57;2.13;;;;;;;0.46;96.84;101024.41;5050567;28;20097;-71
2022/04/01 05:05:01;;;;;;;6.53;2.20;;;;;;;0.49;96.46;101027.88;5033278;28;20028;-71
2022/04/01 05:08:14;;;;;;;6.05;2.40;;;;;;;0.48;98.07;101027.91;5049529;28;20067;-71
2022/04/01 05:11:01;;;;;;;3.72;2.42;;;;;;;0.49;97.68;101027.03;5010190;28;20512;-71
2022/04/01 05:13:29;;;;;;;9.73;2.28;;;;;;;0.51;96.44;101030.50;5048832;28;20124;-71
2022/04/01 05:16:05;;;;;;;6.20;2.10;;;;;;;0.50;96.56;101029.59;5049603;28;20149;-71
2022/04/01 05:18:51;;;;;;;4.57;2.30;;;;;;;0.52;95.86;101040.03;5050778;28;20116;-71
2022/04/01 05:21:22;;;;;;;6.72;2.20;;;;;;;0.54;96.50;101046.09;5032899;28;20345;-71
2022/04/01 05:23:55;;;;;;;6.78;2.75;;;;;;;0.53;97.57;101040.03;5049196;28;20129;-71
2022/04/01 05:26:38;;;;;;;6.05;2.22;;;;;;;0.53;97.30;101052.19;5032485;28;20036;-72
2022/04/01 05:29:10;;;;;;;4.73;2.20;;;;;;;0.50;96.32;101045.25;5035403;28;20016;-71
2022/04/01 05:31:37;;;;;;;8.60;2.92;;;;;;;0.52;97.25;101053.06;5050664;28;20480;-71
2022/04/01 05:34:26;;;;;;;6.40;2.42;;;;;;;0.53;96.99;101063.50;5032510;28;20037;-71
2022/04/01 05:36:53;;;;;;;5.60;2.10;;;;;;;0.52;97.27;101069.59;5033420;28;20830;-72
2022/04/01 05:39:19;;;;;;;8.25;2.60;;;;;;;0.54;98.45;101072.16;5051641;28;20086;-71
2022/04/01 05:41:46;;;;;;;3.67;2.42;;;;;;;0.54;98.26;101075.66;5032519;28;20052;-71
2022/04/01 05:44:12;;;;;;;7.13;2.28;;;;;;;0.57;98.83;101077.41;5032093;28;21563;-71
2022/04/01 05:46:39;;;;;;;4.85;2.20;;;;;;;0.54;97.91;101072.16;5032378;28;20037;-71
2022/04/01 05:49:05;;;;;;;3.75;2.17;;;;;;;0.53;97.99;101078.25;5045927;28;20040;-71
2022/04/01 05:51:30;;;;;;;7.20;2.17;;;;;;;0.52;97.18;101077.41;5034659;28;20041;-71
2022/04/01 05:53:56;;;;;;;6.57;2.30;;;;;;;0.54;97.66;101083.47;5034747;28;20553;-71
2022/04/01 05:56:22;;;;;;;7.93;2.50;;;;;;;0.58;97.55;101080.84;5034261;28;20094;-74
2022/04/01 05:58:48;;;;;;;6.25;2.10;;;;;;;0.59;97.38;101085.22;5033291;28;20059;-70
2022/04/01 06:01:28;;;;;;;6.32;2.22;;;;;;;0.60;97.72;101092.16;5030478;28;20123;-70
2022/04/01 06:04:15;;;;;;;7.43;2.33;;;;;;;0.61;98.07;101096.50;5030935;28;20048;-70
2022/04/01 06:06:42;;;;;;;6.72;2.33;;;;;;;0.60;97.70;101098.22;5033840;28;20041;-70
2022/04/01 06:09:25;;;;;;;7.20;2.30;;;;;;;0.59;98.17;101106.91;5033829;28;20040;-69
2022/04/01 06:12:33;;;;;;;6.20;2.20;;;;;;;0.60;98.25;101107.81;5017231;28;20056;-74
2022/04/01 06:15:19;;;;;;;6.05;2.20;;;;;;;0.59;98.28;101104.31;5032552;28;20064;-75
2022/04/01 06:18:01;;;;;;;4.72;2.25;;;;;;;0.61;97.84;101105.16;5048943;28;20049;-71
2022/04/01 06:20:27;;;;;;;7.75;2.47;;;;;;;0.61;97.81;101115.59;5032388;28;20037;-72
2022/04/01 06:23:09;;;;;;;5.80;2.20;;;;;;;0.62;97.45;101122.56;5034602;28;20029;-71
2022/04/01 06:25:40;;;;;;;5.68;2.50;;;;;;;0.64;97.68;101125.16;5032128;28;20025;-71
2022/04/01 06:28:16;;;;;;;5.13;2.30;;;;;;;0.65;97.40;101117.34;5033489;28;20064;-71
2022/04/01 06:30:44;;;;;;;5.35;2.40;;;;;;;0.67;97.69;101115.59;5033044;28;20041;-70
2022/04/01 06:33:20;;;;;;;6.95;2.38;;;;;;;0.71;98.02;101136.47;5033883;28;21102;-71
2022/04/01 06:36:06;;;;;;;6.60;2.92;;;;;;;0.70;96.79;101122.56;5035949;28;20033;-71
2022/04/01 06:38:40;;;;;;;6.90;2.60;;;;;;;0.70;96.96;101126.91;5034664;28;20041;-70
2022/04/01 06:41:07;;;;;;;8.13;2.70;;;;;;;0.72;97.30;101143.41;5037780;28;20032;-71
2022/04/01 06:43:35;;;;;;;5.25;2.22;;;;;;;0.72;96.88;101140.81;5053869;28;20033;-71
2022/04/01 06:46:02;;;;;;;8.57;2.50;;;;;;;0.74;97.45;101141.66;5053453;28;20040;-71
2022/04/01 06:48:27;;;;;;;5.28;2.35;;;;;;;0.75;96.65;101138.19;5054128;28;20057;-71
2022/04/01 06:50:54;;;;;;;6.65;2.30;;;;;;;0.78;96.02;101141.69;5051563;28;20135;-71
2022/04/01 06:53:20;;;;;;;4.25;2.17;;;;;;;0.81;96.54;101156.44;5052009;28;20033;-71
2022/04/01 06:55:47;;;;;;;8.60;2.60;;;;;;;0.83;96.94;101159.94;5053224;28;20513;-72
2022/04/01 06:58:13;;;;;;;4.05;2.35;;;;;;;0.86;95.94;101152.09;5047317;28;21429;-72
2022/04/01 07:00:40;;;;;;;6.63;2.65;;;;;;;0.88;95.96;101159.94;5020427;28;20044;-72
2022/04/01 07:03:10;;;;;;;10.90;3.00;;;;;;;0.89;95.88;101156.44;5053257;28;20029;-72
2022/04/01 07:05:36;;;;;;;5.80;3.05;;;;;;;0.90;95.64;101164.28;5032677;28;20033;-72
2022/04/01 07:08:03;;;;;;;9.13;2.70;;;;;;;0.93;95.01;101174.69;5036032;28;20399;-72
2022/04/01 07:10:28;;;;;;;5.28;1.98;;;;;;;0.95;95.55;101159.06;5034232;28;20040;-72
2022/04/01 07:12:54;;;;;;;5.45;2.38;;;;;;;0.99;95.72;101168.63;5051680;28;21714;-72
2022/04/01 07:15:19;;;;;;;6.28;2.33;;;;;;;1.01;94.82;101168.59;5051065;28;21396;-72
2022/04/01 07:17:45;;;;;;;7.93;2.53;;;;;;;1.04;94.89;101168.63;5053240;28;20090;-72
2022/04/01 07:20:15;;;;;;;4.28;2.20;;;;;;;1.06;94.67;101172.97;5053776;28;20036;-71
2022/04/01 07:22:40;;;;;;;3.35;2.03;;;;;;;1.09;94.84;101172.06;5019901;28;20349;-72
2022/04/01 07:25:08;;;;;;;5.82;1.98;;;;;;;1.10;93.78;101167.75;5052667;28;20036;-72
2022/04/01 07:27:35;;;;;;;5.30;2.65;;;;;;;1.12;94.11;101177.31;5033284;28;20036;-72
2022/04/01 07:30:01;;;;;;;8.27;2.40;;;;;;;1.16;94.23;101181.66;5051911;28;20068;-72
2022/04/01 07:32:32;;;;;;;5.93;2.50;;;;;;;1.17;94.04;101180.78;5050607;28;20090;-72
2022/04/01 07:34:58;;;;;;;4.35;2.05;;;;;;;1.20;93.08;101183.38;5052234;28;20112;-72
2022/04/01 07:37:25;;;;;;;6.63;2.70;;;;;;;1.25;93.84;101187.72;5017248;28;20016;-72
2022/04/01 07:39:51;;;;;;;9.07;2.22;;;;;;;1.28;93.84;101185.97;5050588;28;20040;-73
2022/04/01 07:42:18;;;;;;;6.07;2.50;;;;;;;1.31;93.71;101183.34;5050507;28;20060;-72
2022/04/01 07:44:44;;;;;;;4.82;2.15;;;;;;;1.34;93.86;101195.53;5032612;28;20131;-74
2022/04/01 07:47:10;;;;;;;7.22;2.20;;;;;;;1.35;93.29;101194.66;5033419;28;20475;-74
2022/04/01 07:49:39;;;;;;;7.50;2.53;;;;;;;1.41;93.97;101196.41;5051890;28;20036;-75
2022/04/01 07:52:07;;;;;;;6.13;2.30;;;;;;;1.42;93.48;101196.38;5051765;28;20024;-74
2022/04/01 07:54:34;;;;;;;4.40;2.50;;;;;;;1.47;92.89;101197.25;5032870;28;20542;-74
2022/04/01 07:56:59;;;;;;;7.28;2.35;;;;;;;1.49;92.29;101211.16;5051497;28;20639;-75
2022/04/01 07:59:25;;;;;;;5.28;2.30;;;;;;;1.50;92.13;101204.22;5017563;28;20089;-71
2022/04/01 08:01:51;;;;;;;5.57;2.60;;;;;;;1.53;92.51;101208.56;5033423;28;20109;-71
2022/04/01 08:04:29;;;;;;;4.18;2.53;;;;;;;1.57;91.91;101212.91;5048830;28;20599;-71
2022/04/01 08:06:57;;;;;;;4.03;2.20;;;;;;;1.59;92.11;101204.19;5035566;28;20041;-71
2022/04/01 08:09:26;;;;;;;4.18;2.65;;;;;;;1.61;91.70;101205.06;5051519;28;20090;-72
2022/04/01 08:11:53;;;;;;;10.20;2.67;;;;;;;1.65;91.68;101211.16;5050982;28;20403;-72
2022/04/01 08:14:19;;;;;;;5.18;2.10;;;;;;;1.72;91.75;101209.38;5018959;28;20589;-72
2022/04/01 08:16:45;;;;;;;3.95;1.95;;;;;;;1.74;90.82;101220.72;5051352;28;20047;-71
2022/04/01 08:19:11;;;;;;;7.68;2.60;;;;;;;1.76;90.64;101221.56;5050387;28;20101;-73
2022/04/01 08:21:37;;;;;;;5.03;2.13;;;;;;;1.76;89.58;101225.03;5017601;28;20124;-71
2022/04/01 08:24:03;;;;;;;5.28;2.30;;;;;;;1.81;91.57;101230.25;5000484;28;20021;-72
2022/04/01 08:26:28;;;;;;;5.38;2.00;;;;;;;1.83;89.76;101230.22;5031788;28;20550;-71
2022/04/01 08:28:54;;;;;;;6.88;2.70;;;;;;;1.86;90.73;101236.31;5030179;28;21298;-72
2022/04/01 08:31:20;;;;;;;6.65;2.60;;;;;;;1.88;90.62;101242.41;5032304;28;20071;-71
2022/04/01 08:33:47;;;;;;;7.47;2.47;;;;;;;1.90;89.79;101247.63;4996080;28;20130;-73
2022/04/01 08:36:14;;;;;;;5.32;2.83;;;;;;;1.92;90.11;101251.13;5047916;28;21141;-73
2022/04/01 08:38:40;;;;;;;4.25;2.45;;;;;;;1.93;89.01;101245.00;5047952;28;20039;-70
2022/04/01 08:41:07;;;;;;;4.50;2.10;;;;;;;1.94;89.92;101259.81;5049410;28;20075;-71
2022/04/01 08:43:36;;;;;;;3.92;2.50;;;;;;;1.94;89.30;101266.75;5030369;28;20121;-71
2022/04/01 08:46:05;;;;;;;5.03;2.10;;;;;;;1.93;89.59;101260.69;5015215;28;20037;-71
2022/04/01 08:48:31;;;;;;;7.15;2.13;;;;;;;1.93;89.17;101270.25;5048156;28;20025;-72
2022/04/01 08:50:58;;;;;;;2.90;1.95;;;;;;;1.87;88.25;101273.75;5049262;28;20036;-72
2022/04/01 08:53:23;;;;;;;3.90;2.28;;;;;;;1.86;87.53;101287.69;5015027;28;20029;-72
2022/04/01 08:55:54;;;;;;;4.20;2.28;;;;;;;1.84;87.46;101281.56;5032101;28;20039;-71
2022/04/01 08:58:21;;;;;;;4.20;2.25;;;;;;;1.85;88.08;101284.19;5031985;28;20387;-72
2022/04/01 09:00:48;;;;;;;6.43;2.20;;;;;;;1.86;87.91;101292.91;5049706;28;20047;-72
2022/04/01 09:03:18;;;;;;;6.03;1.90;;;;;;;1.85;87.35;101291.19;5030581;28;21633;-75
2022/04/01 09:05:51;;;;;;;3.28;1.92;;;;;;;1.85;86.84;101299.00;5049252;28;20520;-75
2022/04/01 09:08:25;;;;;;;4.00;2.10;;;;;;;1.85;87.74;101306.84;5049724;28;20055;-75
2022/04/01 09:11:01;;;;;;;4.22;1.88;;;;;;;1.78;86.85;101312.94;5028225;28;20028;-74
2022/04/01 09:13:33;;;;;;;2.88;2.08;;;;;;;1.69;87.62;101319.03;5030535;28;20293;-75
2022/04/01 09:16:00;;;;;;;2.92;1.83;;;;;;;1.61;87.87;101317.31;5021183;28;20258;-74
2022/04/01 09:18:33;;;;;;;2.83;2.10;;;;;;;1.56;87.42;101318.16;5028956;28;20032;-74
2022/04/01 09:20:59;;;;;;;5.35;2.17;;;;;;;1.52;88.33;101324.28;5043696;28;20162;-75
2022/04/01 09:23:24;;;;;;;4.30;2.03;;;;;;;1.58;89.36;101319.06;5049436;28;20549;-73
2022/04/01 09:25:51;;;;;;;5.20;2.22;;;;;;;1.64;89.87;101324.28;5031343;28;20036;-73
2022/04/01 09:28:32;;;;;;;5.65;2.00;;;;;;;1.69;89.33;101327.72;5050156;28;20036;-73
2022/04/01 09:31:06;;;;;;;2.80;2.00;;;;;;;1.75;89.00;101332.94;5031573;28;20129;-73
2022/04/01 09:33:54;;;;;;;3.65;1.83;;;;;;;1.79;87.06;101335.56;5050254;28;20078;-73
2022/04/01 09:36:27;;;;;;;4.70;2.05;;;;;;;1.85;87.49;101340.78;5048435;28;20709;-73
2022/04/01 09:38:59;;;;;;;4.80;2.00;;;;;;;1.90;87.37;101332.06;5030577;28;20024;-75
2022/04/01 09:41:39;;;;;;;5.25;1.80;;;;;;;1.96;86.58;101332.94;5049111;28;20608;-73
2022/04/01 09:44:08;;;;;;;4.85;1.88;;;;;;;2.02;86.93;101341.63;5048699;28;20033;-73
2022/04/01 09:46:34;;;;;;;3.58;2.00;;;;;;;2.07;86.33;101338.13;5049086;28;20602;-73
2022/04/01 09:49:00;;;;;;;3.35;2.00;;;;;;;2.07;85.28;101339.00;5048986;28;20045;-73
2022/04/01 09:51:33;;;;;;;3.70;2.13;;;;;;;2.12;84.90;101342.47;5050175;28;20036;-73
2022/04/01 09:54:02;;;;;;;3.47;1.77;;;;;;;2.15;84.21;101347.69;5031792;28;20028;-73
2022/04/01 09:56:43;;;;;;;2.55;2.00;;;;;;;2.20;83.98;101355.53;5049473;28;20120;-74
2022/04/01 09:59:11;;;;;;;4.75;2.05;;;;;;;2.25;83.63;101353.78;5049193;28;20115;-74
2022/04/01 10:01:38;;;;;;;4.57;2.30;;;;;;;2.30;84.45;101361.59;5049084;28;20040;-74
2022/04/01 10:04:04;;;;;;;4.65;2.10;;;;;;;2.36;83.82;101356.34;5046943;28;20040;-73
2022/04/01 10:06:32;;;;;;;5.05;2.10;;;;;;;2.41;84.14;101359.81;5047118;28;20044;-73
2022/04/01 10:09:04;;;;;;;5.00;2.22;;;;;;;2.45;83.60;101365.88;5047923;28;22220;-70
2022/04/01 10:11:31;;;;;;;4.68;1.95;;;;;;;2.45;83.53;101360.66;5029722;28;20612;-74
2022/04/01 10:14:20;;;;;;;2.60;1.90;;;;;;;2.47;82.48;101377.22;5030907;28;20041;-74
2022/04/01 10:16:48;;;;;;;5.07;2.25;;;;;;;2.45;83.22;101363.28;5014131;28;20124;-75
2022/04/01 10:19:26;;;;;;;5.18;2.10;;;;;;;2.40;81.03;101372.91;5028742;28;20063;-74
2022/04/01 10:21:52;;;;;;;8.15;2.30;;;;;;;2.35;81.51;101369.41;5046677;28;20483;-74
2022/04/01 10:24:33;;;;;;;4.43;2.10;;;;;;;2.36;83.46;101366.81;5049084;28;20028;-74
2022/04/01 10:27:04;;;;;;;4.95;2.00;;;;;;;2.40;83.86;101357.22;5050976;28;20029;-74
2022/04/01 10:29:31;;;;;;;4.30;2.10;;;;;;;2.50;83.40;101366.75;5052975;28;20037;-75
2022/04/01 10:32:24;;;;;;;3.70;2.05;;;;;;;2.58;82.43;101366.75;5031234;28;20583;-75
2022/04/01 10:34:53;;;;;;;3.20;1.90;;;;;;;2.64;81.08;101361.50;5051820;28;20064;-75
2022/04/01 10:37:22;;;;;;;4.55;1.90;;;;;;;2.72;80.37;101364.03;5031142;28;20300;-76
2022/04/01 10:39:58;;;;;;;2.08;1.60;;;;;;;2.78;77.78;101364.03;5032766;28;20979;-75
2022/04/01 10:42:35;;;;;;;3.58;1.70;;;;;;;2.84;75.31;101361.38;5032921;28;20036;-75
2022/04/01 10:45:06;;;;;;;3.90;1.80;;;;;;;2.88;77.24;101358.78;5048791;28;20036;-76
2022/04/01 10:53:46;;;;;;;6.25;2.55;;;;;;;2.89;78.31;101366.59;5053751;28;20036;-75
2022/04/01 10:56:23;;;;;;;5.10;2.22;;;;;;;2.91;78.83;101367.47;5051621;28;20036;-75
2022/04/01 10:59:15;;;;;;;4.40;2.10;;;;;;;3.00;79.86;101374.41;5049680;28;20465;-74
2022/04/01 11:01:53;;;;;;;3.38;2.03;;;;;;;3.07;78.11;101372.59;5031860;28;20033;-75
2022/04/01 11:04:18;;;;;;;4.57;1.90;;;;;;;3.09;80.09;101374.34;5049809;28;20032;-75
2022/04/01 11:07:00;;;;;;;4.10;2.10;;;;;;;3.11;79.00;101375.19;5049701;28;20024;-76
2022/04/01 11:09:50;;;;;;;5.35;1.92;;;;;;;3.16;78.67;101384.78;5030602;28;20032;-75
2022/04/01 11:12:25;;;;;;;5.32;2.05;;;;;;;3.19;79.46;101379.50;5050936;28;20047;-72
2022/04/01 11:14:54;;;;;;;2.65;2.15;;;;;;;3.23;79.00;101371.63;5051510;28;20040;-75
2022/04/01 11:17:21;;;;;;;2.85;1.90;;;;;;;3.28;78.51;101381.22;5051516;28;20177;-75
2022/04/01 11:20:07;;;;;;;3.95;1.75;;;;;;;3.29;76.79;101386.44;5018449;28;20036;-75
2022/04/01 11:22:43;;;;;;;4.53;1.90;;;;;;;3.35;78.19;101380.28;5049602;28;20033;-76
2022/04/01 11:25:35;;;;;;;4.18;1.60;;;;;;;3.40;76.04;101381.13;5034207;28;21458;-76
2022/04/01 11:28:10;;;;;;;2.92;1.70;;;;;;;3.42;73.03;101366.28;5044073;28;20115;-76
2022/04/01 11:30:43;;;;;;;2.83;1.50;;;;;;;3.42;72.57;101381.97;5049818;28;20032;-76
2022/04/01 11:33:12;;;;;;;2.25;1.67;;;;;;;3.44;72.73;101393.34;5032161;28;20063;-76
2022/04/01 11:35:41;;;;;;;2.05;1.50;;;;;;;3.35;71.12;101381.16;5031295;28;20028;-76
2022/04/01 11:38:09;;;;;;;3.80;1.80;;;;;;;3.38;72.46;101391.59;5043083;28;20617;-76
2022/04/01 11:40:37;;;;;;;2.22;1.40;;;;;;;3.39;72.15;101380.25;5050946;28;20709;-76
2022/04/01 11:43:04;;;;;;;3.95;1.77;;;;;;;3.40;72.99;101384.59;5052969;28;20527;-76
2022/04/01 11:45:31;;;;;;;2.20;1.50;;;;;;;3.42;72.94;101370.66;5051646;28;20509;-75
2022/04/01 11:47:57;;;;;;;5.68;1.65;;;;;;;3.47;72.91;101368.84;5045957;28;20112;-75
2022/04/01 11:50:24;;;;;;;5.20;1.60;;;;;;;3.45;71.01;101366.28;5030445;28;20120;-76
2022/04/01 11:52:53;;;;;;;5.97;1.75;;;;;;;3.46;72.24;101369.75;5050648;28;20234;-75